Time;durP1;ratioP1;P1;durP2;ratioP2;P2;SDS_P1;SDS_P2;PMS_P1;PMS_P2;Temp;Humidity;BMP_temperature;BMP_pressure;BME280_temperature;BME280_humidity;BME280_pressure;Samples;Min_cycle;Max_cycle;Signal;HPM_P1;HPM_P2
2021/07/10 00:02:12;;;;;;;2.60;1.97;;;;;;;;;;5077120;28;20229;-65
2021/07/10 00:04:41;;;;;;;1.93;1.83;;;;;;;;;;5078831;28;20215;-65
2021/07/10 00:07:09;;;;;;;2.83;2.30;;;;;;;;;;5080393;28;20208;-65
2021/07/10 00:09:36;;;;;;;1.70;1.60;;;;;;;;;;5080565;28;20761;-65
2021/07/10 00:12:05;;;;;;;2.97;2.10;;;;;;;;;;5080324;28;20228;-65
2021/07/10 00:14:32;;;;;;;4.30;1.90;;;;;;;;;;5080624;28;20660;-65
2021/07/10 00:17:00;;;;;;;3.43;1.87;;;;;;;;;;5080555;28;20213;-65
2021/07/10 00:19:28;;;;;;;3.60;1.67;;;;;;;;;;5080446;28;20264;-65
2021/07/10 00:21:57;;;;;;;1.67;1.57;;;;;;;;;;5080057;28;20254;-64
2021/07/10 00:24:24;;;;;;;2.00;1.80;;;;;;;;;;5080414;28;20216;-65
2021/07/10 00:26:52;;;;;;;4.00;2.00;;;;;;;;;;5080109;28;20203;-66
2021/07/10 00:29:20;;;;;;;3.30;1.60;;;;;;;;;;5080046;28;20212;-65
2021/07/10 00:31:47;;;;;;;2.27;1.60;;;;;;;;;;5080141;28;20229;-65
2021/07/10 00:34:15;;;;;;;2.30;1.83;;;;;;;;;;5079876;28;20299;-65
2021/07/10 00:36:43;;;;;;;5.37;2.33;;;;;;;;;;5079915;28;20236;-65
2021/07/10 00:39:12;;;;;;;3.37;1.93;;;;;;;;;;5080103;28;20233;-65
2021/07/10 00:41:40;;;;;;;1.70;1.60;;;;;;;;;;5079738;28;20231;-65
2021/07/10 00:44:08;;;;;;;3.20;1.50;;;;;;;;;;5079950;28;20239;-66
2021/07/10 00:46:35;;;;;;;3.87;2.17;;;;;;;;;;5079896;28;20724;-66
2021/07/10 00:49:03;;;;;;;1.80;1.70;;;;;;;;;;5079855;28;20262;-66
2021/07/10 00:51:31;;;;;;;3.33;1.50;;;;;;;;;;5079334;28;20262;-66
2021/07/10 00:53:58;;;;;;;1.67;1.57;;;;;;;;;;5079681;28;20210;-66
2021/07/10 00:56:27;;;;;;;3.60;1.80;;;;;;;;;;5079499;28;20281;-66
2021/07/10 00:58:55;;;;;;;6.67;1.60;;;;;;;;;;5079745;28;20204;-66
2021/07/10 01:01:23;;;;;;;2.43;1.77;;;;;;;;;;5079598;28;20582;-66
2021/07/10 01:03:51;;;;;;;5.37;1.80;;;;;;;;;;5079644;28;20219;-66
2021/07/10 01:06:19;;;;;;;2.97;1.63;;;;;;;;;;5079412;28;20207;-66
2021/07/10 01:08:48;;;;;;;2.07;1.80;;;;;;;;;;5079522;28;20261;-66
2021/07/10 01:11:16;;;;;;;3.03;2.00;;;;;;;;;;5079100;28;20261;-66
2021/07/10 01:13:46;;;;;;;4.73;2.00;;;;;;;;;;5079165;28;20204;-66
2021/07/10 01:16:14;;;;;;;4.30;1.80;;;;;;;;;;5079105;28;20206;-66
2021/07/10 01:18:42;;;;;;;1.90;1.70;;;;;;;;;;5079207;28;20260;-65
2021/07/10 01:21:11;;;;;;;2.20;1.77;;;;;;;;;;5078902;28;20198;-65
2021/07/10 01:23:38;;;;;;;3.20;1.70;;;;;;;;;;5079129;28;20218;-65
2021/07/10 01:26:06;;;;;;;2.07;1.80;;;;;;;;;;5078861;28;20210;-65
2021/07/10 01:28:34;;;;;;;3.43;2.13;;;;;;;;;;5078885;28;20708;-66
2021/07/10 01:31:01;;;;;;;3.90;1.80;;;;;;;;;;5078886;28;20233;-65
2021/07/10 01:33:29;;;;;;;2.43;1.90;;;;;;;;;;5078628;28;20244;-65
2021/07/10 01:35:57;;;;;;;2.13;1.90;;;;;;;;;;5079139;28;20210;-66
2021/07/10 01:38:26;;;;;;;2.23;1.60;;;;;;;;;;5078460;28;20214;-66
2021/07/10 01:40:54;;;;;;;2.10;1.67;;;;;;;;;;5078852;28;20232;-65
2021/07/10 01:43:22;;;;;;;1.97;1.73;;;;;;;;;;5078533;28;20206;-65
2021/07/10 01:45:49;;;;;;;1.50;1.40;;;;;;;;;;5078758;28;20238;-65
2021/07/10 01:48:17;;;;;;;5.90;2.00;;;;;;;;;;5078509;28;20206;-65
2021/07/10 01:50:47;;;;;;;3.63;1.73;;;;;;;;;;5078623;28;20279;-65
2021/07/10 01:53:15;;;;;;;3.50;2.00;;;;;;;;;;5078052;28;20233;-65
2021/07/10 01:55:44;;;;;;;1.50;1.30;;;;;;;;;;5078341;28;20264;-62
2021/07/10 01:58:12;;;;;;;2.00;1.70;;;;;;;;;;5078487;28;20203;-65
2021/07/10 02:00:41;;;;;;;2.37;1.53;;;;;;;;;;5078507;28;20203;-66
2021/07/10 02:03:09;;;;;;;2.20;1.73;;;;;;;;;;5078439;28;20222;-66
2021/07/10 02:05:37;;;;;;;3.40;1.80;;;;;;;;;;5078375;28;20210;-65
2021/07/10 02:08:05;;;;;;;2.37;1.80;;;;;;;;;;5077838;28;20205;-65
2021/07/10 02:10:33;;;;;;;2.80;2.20;;;;;;;;;;5078289;28;20222;-65
2021/07/10 02:13:05;;;;;;;3.00;1.93;;;;;;;;;;5078067;28;20219;-65
2021/07/10 02:15:33;;;;;;;2.00;1.70;;;;;;;;;;5078071;28;20210;-65
2021/07/10 02:18:01;;;;;;;2.20;1.80;;;;;;;;;;5078098;28;20210;-65
2021/07/10 02:20:28;;;;;;;2.20;1.77;;;;;;;;;;5078169;28;20600;-65
2021/07/10 02:22:57;;;;;;;2.27;1.97;;;;;;;;;;5077580;28;20230;-64
2021/07/10 02:25:26;;;;;;;3.70;2.00;;;;;;;;;;5078165;28;20252;-65
2021/07/10 02:27:53;;;;;;;2.50;1.87;;;;;;;;;;5077370;28;20210;-65
2021/07/10 02:30:24;;;;;;;2.40;1.97;;;;;;;;;;5078060;28;20672;-64
2021/07/10 02:32:51;;;;;;;3.07;1.67;;;;;;;;;;5077787;28;20375;-64
2021/07/10 02:35:19;;;;;;;2.10;1.90;;;;;;;;;;5078117;28;20210;-64
2021/07/10 02:41:09;;;;;;;3.50;1.90;;;;;;;;;;5077107;28;20656;-64
2021/07/10 02:43:37;;;;;;;1.80;1.70;;;;;;;;;;5077650;28;20637;-64
2021/07/10 02:46:06;;;;;;;4.43;2.30;;;;;;;;;;5078016;28;20224;-65
2021/07/10 02:48:34;;;;;;;3.33;1.80;;;;;;;;;;5078213;28;20206;-64
2021/07/10 02:51:02;;;;;;;3.40;2.10;;;;;;;;;;5078470;28;20222;-64
2021/07/10 02:53:30;;;;;;;2.03;1.43;;;;;;;;;;5078235;28;20210;-65
2021/07/10 02:55:58;;;;;;;2.33;1.80;;;;;;;;;;5077926;28;20206;-66
2021/07/10 02:58:26;;;;;;;2.77;1.60;;;;;;;;;;5077771;28;20214;-66
2021/07/10 03:00:54;;;;;;;4.10;2.00;;;;;;;;;;5078155;28;20210;-66
2021/07/10 03:03:24;;;;;;;2.73;2.13;;;;;;;;;;5077914;28;20255;-64
2021/07/10 03:05:53;;;;;;;2.40;2.20;;;;;;;;;;5078206;28;20210;-64
2021/07/10 03:08:21;;;;;;;3.10;2.03;;;;;;;;;;5077770;28;20208;-64
2021/07/10 03:10:49;;;;;;;5.20;2.23;;;;;;;;;;5077587;28;20210;-66
2021/07/10 03:13:17;;;;;;;2.40;2.20;;;;;;;;;;5077527;28;20228;-66
2021/07/10 03:15:45;;;;;;;2.20;1.50;;;;;;;;;;5077632;28;20209;-66
2021/07/10 03:18:13;;;;;;;2.43;2.10;;;;;;;;;;5077658;28;20213;-66
2021/07/10 03:20:43;;;;;;;2.50;1.60;;;;;;;;;;5077494;28;20213;-64
2021/07/10 03:23:11;;;;;;;1.87;1.77;;;;;;;;;;5077016;28;20751;-64
2021/07/10 03:25:39;;;;;;;2.47;1.70;;;;;;;;;;5077144;28;20202;-65
2021/07/10 03:28:06;;;;;;;3.53;1.73;;;;;;;;;;5077239;28;20581;-65
2021/07/10 03:30:34;;;;;;;3.77;1.70;;;;;;;;;;5077574;28;20266;-64
2021/07/10 03:33:03;;;;;;;2.00;1.80;;;;;;;;;;5076989;28;20261;-65
2021/07/10 03:35:31;;;;;;;5.63;2.47;;;;;;;;;;5077555;28;20679;-63
2021/07/10 03:38:00;;;;;;;6.93;2.30;;;;;;;;;;5077510;28;20206;-63
2021/07/10 03:40:28;;;;;;;5.00;2.17;;;;;;;;;;5080754;28;20623;-65
2021/07/10 03:42:59;;;;;;;8.37;2.77;;;;;;;;;;5080600;28;20709;-65
2021/07/10 03:45:27;;;;;;;7.43;2.57;;;;;;;;;;5080654;28;20214;-64
2021/07/10 03:47:55;;;;;;;5.83;2.70;;;;;;;;;;5080908;28;20214;-65
2021/07/10 03:50:23;;;;;;;3.63;1.87;;;;;;;;;;5080717;28;20205;-64
2021/07/10 03:52:51;;;;;;;6.70;2.47;;;;;;;;;;5080428;28;20234;-64
2021/07/10 03:55:21;;;;;;;5.43;2.57;;;;;;;;;;5080589;28;20247;-66
2021/07/10 03:57:49;;;;;;;8.57;2.67;;;;;;;;;;5080775;28;20206;-64
2021/07/10 04:00:18;;;;;;;4.00;2.27;;;;;;;;;;5080813;28;20213;-64
2021/07/10 04:02:46;;;;;;;6.23;2.30;;;;;;;;;;5080738;28;20230;-65
2021/07/10 04:05:14;;;;;;;4.23;2.37;;;;;;;;;;5080379;28;20220;-65
2021/07/10 04:07:42;;;;;;;7.13;2.40;;;;;;;;;;5080172;28;20661;-65
2021/07/10 04:10:11;;;;;;;6.63;2.70;;;;;;;;;;5080589;28;20571;-65
2021/07/10 04:12:41;;;;;;;7.40;2.10;;;;;;;;;;5080658;28;20329;-66
2021/07/10 04:15:10;;;;;;;3.67;2.33;;;;;;;;;;5080589;28;20212;-67
2021/07/10 04:17:38;;;;;;;5.90;1.77;;;;;;;;;;5080277;28;20210;-66
2021/07/10 04:20:07;;;;;;;3.03;1.87;;;;;;;;;;5080439;28;20206;-66
2021/07/10 04:22:35;;;;;;;5.90;2.13;;;;;;;;;;5079949;28;20222;-67
2021/07/10 04:25:04;;;;;;;6.43;2.33;;;;;;;;;;5079989;28;20201;-67
2021/07/10 04:27:32;;;;;;;5.10;2.73;;;;;;;;;;5080101;28;20269;-68
2021/07/10 04:30:02;;;;;;;4.77;2.30;;;;;;;;;;5078464;28;20277;-67
2021/07/10 04:32:30;;;;;;;3.40;1.97;;;;;;;;;;5079545;28;20730;-68
2021/07/10 04:34:58;;;;;;;5.40;1.80;;;;;;;;;;5079835;28;20198;-68
2021/07/10 04:37:26;;;;;;;2.17;1.90;;;;;;;;;;5079574;28;20198;-68
2021/07/10 04:39:54;;;;;;;1.93;1.73;;;;;;;;;;5079825;28;20205;-68
2021/07/10 04:42:24;;;;;;;3.57;2.40;;;;;;;;;;5079641;28;20697;-68
2021/07/10 04:44:52;;;;;;;3.77;2.20;;;;;;;;;;5079753;28;20225;-68
2021/07/10 04:47:22;;;;;;;5.47;2.57;;;;;;;;;;5079965;28;20208;-68
2021/07/10 04:49:50;;;;;;;3.33;2.40;;;;;;;;;;5079023;28;20202;-68
2021/07/10 04:52:18;;;;;;;5.03;1.87;;;;;;;;;;5079368;28;20230;-68
2021/07/10 04:54:46;;;;;;;7.93;2.70;;;;;;;;;;5079637;28;20226;-68
2021/07/10 04:57:14;;;;;;;2.80;1.93;;;;;;;;;;5079836;28;20207;-68
2021/07/10 04:59:41;;;;;;;4.20;2.20;;;;;;;;;;5079501;28;20206;-68
2021/07/10 05:02:09;;;;;;;3.03;2.17;;;;;;;;;;5079420;28;20586;-67
2021/07/10 05:04:39;;;;;;;4.17;2.57;;;;;;;;;;5079702;28;20217;-66
2021/07/10 05:07:07;;;;;;;5.27;2.23;;;;;;;;;;5079304;28;20292;-67
2021/07/10 05:09:35;;;;;;;7.93;2.50;;;;;;;;;;5079274;28;20217;-67
2021/07/10 05:12:03;;;;;;;6.37;2.47;;;;;;;;;;5079213;28;20226;-68
2021/07/10 05:14:31;;;;;;;7.50;2.27;;;;;;;;;;5079583;28;20206;-68
2021/07/10 05:16:59;;;;;;;3.67;2.30;;;;;;;;;;5079724;28;20202;-68
2021/07/10 05:19:27;;;;;;;3.57;2.40;;;;;;;;;;5079565;28;20288;-68
2021/07/10 05:21:57;;;;;;;4.83;2.40;;;;;;;;;;5078818;28;20228;-68
2021/07/10 05:24:24;;;;;;;2.50;1.97;;;;;;;;;;5078994;28;20575;-68
2021/07/10 05:26:52;;;;;;;5.13;2.30;;;;;;;;;;5078853;28;20260;-66
2021/07/10 05:29:20;;;;;;;3.70;2.57;;;;;;;;;;5079138;28;20212;-66
2021/07/10 05:31:48;;;;;;;7.47;2.57;;;;;;;;;;5078624;28;20792;-66
2021/07/10 05:34:16;;;;;;;3.60;2.40;;;;;;;;;;5078731;28;20238;-66
2021/07/10 05:36:44;;;;;;;7.40;2.53;;;;;;;;;;5078641;28;20202;-67
2021/07/10 05:39:14;;;;;;;3.50;2.53;;;;;;;;;;5078986;28;20211;-67
2021/07/10 05:41:42;;;;;;;5.47;3.07;;;;;;;;;;5078461;28;20331;-66
2021/07/10 05:44:10;;;;;;;4.23;2.60;;;;;;;;;;5078506;28;20209;-67
2021/07/10 05:46:38;;;;;;;6.27;3.27;;;;;;;;;;5078813;28;20206;-68
2021/07/10 05:49:06;;;;;;;4.73;2.87;;;;;;;;;;5078426;28;20618;-68
2021/07/10 05:51:34;;;;;;;4.43;2.63;;;;;;;;;;5078402;28;20226;-66
2021/07/10 05:54:02;;;;;;;3.17;2.93;;;;;;;;;;5078291;28;20594;-66
2021/07/10 05:56:31;;;;;;;4.33;3.20;;;;;;;;;;5078139;28;20554;-66
2021/07/10 05:58:59;;;;;;;5.63;3.20;;;;;;;;;;5078539;28;20213;-66
2021/07/10 06:01:27;;;;;;;4.07;2.53;;;;;;;;;;5077667;28;20226;-67
2021/07/10 06:03:55;;;;;;;8.10;3.73;;;;;;;;;;5078073;28;20202;-66
2021/07/10 06:06:23;;;;;;;3.27;2.97;;;;;;;;;;5077960;28;20570;-68
2021/07/10 06:08:51;;;;;;;5.17;3.53;;;;;;;;;;5078071;28;20554;-68
2021/07/10 06:11:19;;;;;;;7.40;3.23;;;;;;;;;;5078269;28;20222;-67
2021/07/10 06:13:49;;;;;;;6.27;3.07;;;;;;;;;;5077871;28;20222;-67
2021/07/10 06:16:17;;;;;;;3.93;3.37;;;;;;;;;;5078366;28;20214;-68
2021/07/10 06:18:45;;;;;;;4.17;2.83;;;;;;;;;;5077966;28;20573;-68
2021/07/10 06:21:13;;;;;;;6.00;2.97;;;;;;;;;;5077710;28;20658;-68
2021/07/10 06:23:43;;;;;;;8.37;3.63;;;;;;;;;;5078153;28;20244;-67
2021/07/10 06:26:12;;;;;;;4.80;3.73;;;;;;;;;;5078435;28;20213;-68
2021/07/10 06:28:40;;;;;;;6.47;3.60;;;;;;;;;;5078157;28;20289;-66
2021/07/10 06:31:09;;;;;;;6.90;3.87;;;;;;;;;;5077726;28;20218;-67
2021/07/10 06:33:37;;;;;;;4.83;3.43;;;;;;;;;;5077661;28;20238;-66
2021/07/10 06:36:05;;;;;;;7.80;3.50;;;;;;;;;;5077737;28;20289;-66
2021/07/10 06:38:33;;;;;;;4.43;3.33;;;;;;;;;;5078050;28;20210;-67
2021/07/10 06:41:01;;;;;;;5.40;3.13;;;;;;;;;;5078145;28;20237;-67
2021/07/10 06:43:29;;;;;;;5.23;3.20;;;;;;;;;;5078703;28;20198;-66
2021/07/10 06:45:57;;;;;;;4.50;3.47;;;;;;;;;;5078291;28;20289;-66
2021/07/10 06:48:26;;;;;;;4.27;2.70;;;;;;;;;;5078010;28;20297;-66
2021/07/10 06:50:54;;;;;;;3.57;2.67;;;;;;;;;;5077324;28;20584;-66
2021/07/10 06:53:22;;;;;;;4.50;2.87;;;;;;;;;;5077820;28;20229;-67
2021/07/10 06:55:50;;;;;;;6.73;2.57;;;;;;;;;;5077776;28;20216;-66
2021/07/10 06:58:18;;;;;;;4.30;2.50;;;;;;;;;;5077614;28;20599;-67
2021/07/10 07:00:47;;;;;;;4.63;2.83;;;;;;;;;;5077770;28;20210;-66
2021/07/10 07:03:14;;;;;;;3.43;2.80;;;;;;;;;;5077499;28;20309;-66
2021/07/10 07:05:44;;;;;;;3.20;2.77;;;;;;;;;;5077937;28;20206;-66
2021/07/10 07:08:12;;;;;;;5.00;2.73;;;;;;;;;;5077406;28;20216;-67
2021/07/10 07:10:40;;;;;;;4.87;2.70;;;;;;;;;;5077623;28;20679;-68
2021/07/10 07:13:08;;;;;;;5.50;2.80;;;;;;;;;;5078415;28;20312;-68
2021/07/10 07:15:37;;;;;;;4.73;2.60;;;;;;;;;;5081469;28;20564;-68
2021/07/10 07:18:05;;;;;;;2.60;2.40;;;;;;;;;;5081468;28;20206;-68
2021/07/10 07:20:33;;;;;;;4.27;2.63;;;;;;;;;;5081236;28;20584;-68
2021/07/10 07:23:02;;;;;;;3.60;2.53;;;;;;;;;;5080980;28;20233;-68
2021/07/10 07:25:31;;;;;;;3.23;2.60;;;;;;;;;;5081154;28;20223;-68
2021/07/10 07:27:59;;;;;;;4.60;2.80;;;;;;;;;;5081197;28;20209;-68
2021/07/10 07:30:27;;;;;;;7.47;2.83;;;;;;;;;;5081674;28;20700;-67
2021/07/10 07:32:55;;;;;;;4.30;2.93;;;;;;;;;;5080831;28;20768;-67
2021/07/10 07:35:23;;;;;;;3.17;2.77;;;;;;;;;;5081192;28;20598;-67
2021/07/10 07:37:51;;;;;;;4.23;2.57;;;;;;;;;;5080671;28;20210;-68
2021/07/10 07:40:20;;;;;;;4.90;3.03;;;;;;;;;;5081153;28;20288;-67
2021/07/10 07:42:48;;;;;;;8.33;3.30;;;;;;;;;;5080836;28;20592;-67
2021/07/10 07:45:18;;;;;;;4.83;2.53;;;;;;;;;;5081087;28;20207;-67
2021/07/10 07:47:46;;;;;;;4.50;2.80;;;;;;;;;;5081022;28;20212;-67
2021/07/10 07:50:15;;;;;;;5.03;2.70;;;;;;;;;;5080947;28;20206;-67
2021/07/10 07:52:43;;;;;;;2.60;2.30;;;;;;;;;;5080300;28;20242;-67
2021/07/10 07:55:11;;;;;;;3.57;2.27;;;;;;;;;;5080532;28;20224;-66
2021/07/10 07:57:41;;;;;;;3.43;2.30;;;;;;;;;;5080583;28;20215;-66
2021/07/10 08:00:11;;;;;;;2.17;1.93;;;;;;;;;;5080660;28;20217;-66
2021/07/10 08:02:39;;;;;;;5.07;3.03;;;;;;;;;;5080762;28;20311;-66
2021/07/10 08:05:07;;;;;;;3.97;1.80;;;;;;;;;;5080505;28;20258;-66
2021/07/10 08:07:35;;;;;;;7.93;5.67;;;;;;;;;;5080558;28;20290;-66
2021/07/10 08:10:09;;;;;;;5.40;2.20;;;;;;;;;;5080746;28;20650;-66
2021/07/10 08:12:37;;;;;;;3.20;2.00;;;;;;;;;;5080341;28;20706;-67
2021/07/10 08:15:07;;;;;;;3.40;2.30;;;;;;;;;;5080521;28;20230;-67
2021/07/10 08:17:35;;;;;;;2.37;1.90;;;;;;;;;;5080965;28;20213;-67
2021/07/10 08:20:03;;;;;;;2.73;2.10;;;;;;;;;;5080838;28;20207;-67
2021/07/10 08:22:31;;;;;;;2.10;1.80;;;;;;;;;;5079886;28;20259;-67
2021/07/10 08:25:00;;;;;;;3.40;1.93;;;;;;;;;;5079801;28;20261;-66
2021/07/10 08:27:28;;;;;;;3.70;2.37;;;;;;;;;;5081440;28;20217;-65
2021/07/10 08:29:55;;;;;;;3.13;2.30;;;;;;;;;;5080098;28;20218;-66
2021/07/10 08:32:25;;;;;;;4.97;2.80;;;;;;;;;;5079907;28;20247;-66
2021/07/10 08:34:53;;;;;;;2.70;2.07;;;;;;;;;;5080419;28;20230;-67
2021/07/10 08:37:21;;;;;;;3.80;2.03;;;;;;;;;;5079769;28;20210;-66
2021/07/10 08:39:49;;;;;;;3.63;1.80;;;;;;;;;;5080005;28;20207;-66
2021/07/10 08:42:17;;;;;;;1.90;1.80;;;;;;;;;;5080060;28;20227;-68
2021/07/10 08:44:47;;;;;;;2.50;2.00;;;;;;;;;;5079830;28;20572;-66
2021/07/10 08:47:15;;;;;;;3.83;2.00;;;;;;;;;;5079855;28;20688;-67
2021/07/10 08:49:45;;;;;;;2.40;1.83;;;;;;;;;;5079757;28;20202;-67
2021/07/10 08:52:13;;;;;;;3.43;2.03;;;;;;;;;;5079606;28;20228;-67
2021/07/10 08:54:41;;;;;;;3.17;1.93;;;;;;;;;;5079638;28;20227;-67
2021/07/10 08:57:09;;;;;;;4.77;2.13;;;;;;;;;;5079717;28;20268;-68
2021/07/10 08:59:37;;;;;;;2.03;1.90;;;;;;;;;;5079548;28;20578;-67
2021/07/10 09:02:05;;;;;;;3.00;2.03;;;;;;;;;;5079518;28;20767;-68
2021/07/10 09:04:33;;;;;;;3.70;2.20;;;;;;;;;;5079747;28;20209;-67
2021/07/10 09:07:03;;;;;;;2.50;1.80;;;;;;;;;;5079354;28;20213;-68
2021/07/10 09:09:43;;;;;;;3.20;2.10;;;;;;;;;;5079585;28;20209;-68
2021/07/10 09:12:13;;;;;;;2.60;2.40;;;;;;;;;;5079381;28;20221;-68
2021/07/10 09:14:41;;;;;;;3.77;2.13;;;;;;;;;;5079481;28;20236;-67
2021/07/10 09:17:16;;;;;;;2.37;2.13;;;;;;;;;;5079408;28;20293;-67
2021/07/10 09:19:44;;;;;;;3.17;2.40;;;;;;;;;;5079334;28;20288;-66
2021/07/10 09:22:23;;;;;;;2.67;2.10;;;;;;;;;;5065860;28;20250;-66
2021/07/10 09:24:51;;;;;;;2.73;1.90;;;;;;;;;;5078923;28;20204;-66
2021/07/10 09:27:19;;;;;;;1.93;1.73;;;;;;;;;;5078964;28;20203;-66
2021/07/10 09:29:48;;;;;;;2.77;2.20;;;;;;;;;;5079069;28;20203;-67
2021/07/10 09:32:18;;;;;;;2.83;2.00;;;;;;;;;;5078906;28;20600;-67
2021/07/10 09:34:48;;;;;;;1.83;1.60;;;;;;;;;;5079293;28;20262;-67
2021/07/10 09:37:18;;;;;;;2.47;1.90;;;;;;;;;;5078752;28;20290;-67
2021/07/10 09:40:07;;;;;;;2.40;2.20;;;;;;;;;;5079064;28;20204;-67
2021/07/10 09:42:36;;;;;;;1.90;1.80;;;;;;;;;;5079321;28;20222;-67
2021/07/10 09:45:07;;;;;;;2.80;1.80;;;;;;;;;;5079220;28;20203;-66
2021/07/10 09:47:36;;;;;;;5.43;1.83;;;;;;;;;;5079346;28;20207;-66
2021/07/10 09:50:06;;;;;;;3.90;1.73;;;;;;;;;;5078786;28;20203;-65
2021/07/10 09:52:36;;;;;;;3.07;1.47;;;;;;;;;;5077993;28;20310;-66
2021/07/10 09:55:05;;;;;;;1.83;1.63;;;;;;;;;;5078324;28;20245;-66
2021/07/10 09:57:34;;;;;;;2.97;2.00;;;;;;;;;;5078174;28;20218;-67
2021/07/10 10:00:06;;;;;;;3.23;1.73;;;;;;;;;;5078389;28;20211;-67
2021/07/10 10:02:34;;;;;;;3.63;2.13;;;;;;;;;;5078621;28;20316;-68
2021/07/10 10:05:05;;;;;;;17.40;4.73;;;;;;;;;;5078487;28;20203;-65
2021/07/10 10:07:43;;;;;;;4.90;1.90;;;;;;;;;;5078171;28;20207;-68
2021/07/10 10:10:16;;;;;;;2.10;1.83;;;;;;;;;;5078070;28;20579;-68
2021/07/10 10:13:04;;;;;;;2.73;2.10;;;;;;;;;;5078242;28;20225;-66
2021/07/10 10:15:33;;;;;;;1.87;1.77;;;;;;;;;;5077845;28;20233;-68
2021/07/10 10:18:01;;;;;;;3.00;1.83;;;;;;;;;;5078188;28;20202;-68
2021/07/10 10:20:29;;;;;;;2.37;1.43;;;;;;;;;;5078251;28;20210;-69
2021/07/10 10:23:00;;;;;;;1.70;1.60;;;;;;;;;;5077870;28;20237;-66
2021/07/10 10:25:28;;;;;;;1.63;1.50;;;;;;;;;;5077799;28;20198;-68
2021/07/10 10:27:57;;;;;;;3.27;1.60;;;;;;;;;;5077863;28;20214;-68
2021/07/10 10:30:25;;;;;;;2.90;1.60;;;;;;;;;;5078154;28;20216;-68
2021/07/10 10:32:53;;;;;;;1.70;1.43;;;;;;;;;;5077551;28;20546;-68
2021/07/10 10:35:21;;;;;;;4.40;1.50;;;;;;;;;;5077966;28;20230;-68
2021/07/10 10:37:51;;;;;;;1.73;1.63;;;;;;;;;;5077677;28;20240;-68
2021/07/10 10:40:23;;;;;;;2.20;1.67;;;;;;;;;;5077899;28;20201;-68
2021/07/10 10:42:52;;;;;;;1.40;1.30;;;;;;;;;;5077949;28;20256;-68
2021/07/10 10:45:26;;;;;;;2.60;1.67;;;;;;;;;;5079468;28;20207;-68
2021/07/10 10:47:54;;;;;;;1.77;1.57;;;;;;;;;;5077960;28;20289;-68
2021/07/10 10:50:25;;;;;;;1.50;1.40;;;;;;;;;;5078694;28;20256;-68
2021/07/10 10:52:54;;;;;;;1.67;1.40;;;;;;;;;;5077764;28;20322;-67
2021/07/10 10:55:35;;;;;;;1.83;1.40;;;;;;;;;;5077755;28;20222;-68
2021/07/10 10:58:15;;;;;;;2.60;1.50;;;;;;;;;;5077874;28;20209;-68
2021/07/10 11:00:44;;;;;;;1.40;1.30;;;;;;;;;;5077862;28;20202;-69
2021/07/10 11:03:12;;;;;;;4.80;2.40;;;;;;;;;;5077844;28;20256;-69
2021/07/10 11:05:54;;;;;;;1.63;1.53;;;;;;;;;;5077173;28;20220;-69
2021/07/10 11:08:22;;;;;;;4.87;1.60;;;;;;;;;;5077696;28;20213;-69
2021/07/10 11:11:05;;;;;;;1.70;1.60;;;;;;;;;;5077628;28;20213;-69
2021/07/10 11:13:35;;;;;;;1.43;1.33;;;;;;;;;;5077165;28;20658;-69
2021/07/10 11:16:04;;;;;;;1.47;1.37;;;;;;;;;;5077408;28;20223;-68
2021/07/10 11:18:48;;;;;;;1.37;1.27;;;;;;;;;;5077656;28;20362;-69
2021/07/10 11:21:31;;;;;;;2.30;1.60;;;;;;;;;;5077017;28;20230;-69
2021/07/10 11:24:14;;;;;;;1.50;1.40;;;;;;;;;;5077194;28;20207;-69
2021/07/10 11:26:42;;;;;;;1.70;1.60;;;;;;;;;;5076987;28;20213;-68
2021/07/10 11:29:19;;;;;;;1.63;1.53;;;;;;;;;;5077497;28;20203;-69
2021/07/10 11:31:47;;;;;;;1.23;1.13;;;;;;;;;;5077404;28;20223;-69
2021/07/10 11:34:16;;;;;;;1.60;1.50;;;;;;;;;;5077019;28;20600;-69
2021/07/10 11:36:49;;;;;;;1.80;1.47;;;;;;;;;;5063703;28;20228;-69
2021/07/10 11:39:36;;;;;;;2.57;1.20;;;;;;;;;;5077677;28;20211;-69
2021/07/10 11:42:18;;;;;;;1.30;1.20;;;;;;;;;;5077371;28;20713;-69
2021/07/10 11:44:50;;;;;;;1.40;1.13;;;;;;;;;;5072585;28;20212;-69
2021/07/10 11:47:29;;;;;;;2.23;1.50;;;;;;;;;;5077147;28;20677;-69
2021/07/10 11:49:57;;;;;;;1.30;1.20;;;;;;;;;;5077342;28;20204;-69
2021/07/10 11:52:25;;;;;;;2.00;1.20;;;;;;;;;;5076931;28;20234;-69
2021/07/10 11:54:54;;;;;;;2.97;1.50;;;;;;;;;;5076928;28;20211;-69
2021/07/10 11:57:24;;;;;;;3.40;1.30;;;;;;;;;;5077171;28;20237;-67
2021/07/10 11:59:53;;;;;;;3.77;1.20;;;;;;;;;;5079216;28;20221;-68
2021/07/10 12:02:22;;;;;;;1.10;1.00;;;;;;;;;;5080496;28;20332;-68
2021/07/10 12:05:00;;;;;;;2.70;1.10;;;;;;;;;;5080564;28;20205;-69
2021/07/10 12:07:28;;;;;;;2.27;1.17;;;;;;;;;;5080479;28;20286;-69
2021/07/10 12:09:57;;;;;;;1.40;1.30;;;;;;;;;;5080612;28;20209;-69
2021/07/10 12:12:25;;;;;;;1.40;1.30;;;;;;;;;;5080547;28;20231;-69
2021/07/10 12:14:55;;;;;;;2.40;1.30;;;;;;;;;;5080471;28;20209;-69
2021/07/10 12:17:23;;;;;;;1.40;1.30;;;;;;;;;;5080591;28;20227;-69
2021/07/10 12:19:54;;;;;;;1.90;1.03;;;;;;;;;;5080486;28;20224;-68
2021/07/10 12:22:23;;;;;;;1.30;1.20;;;;;;;;;;5080221;28;20234;-69
2021/07/10 12:25:00;;;;;;;1.37;1.27;;;;;;;;;;5080313;28;20215;-69
2021/07/10 12:27:31;;;;;;;1.80;1.27;;;;;;;;;;5080488;28;20204;-69
2021/07/10 12:30:00;;;;;;;2.17;1.47;;;;;;;;;;5080706;28;20207;-69
2021/07/10 12:32:28;;;;;;;2.57;1.47;;;;;;;;;;5080109;28;20239;-69
2021/07/10 12:34:57;;;;;;;1.10;1.10;;;;;;;;;;5079984;28;20572;-69
2021/07/10 12:37:25;;;;;;;1.40;1.20;;;;;;;;;;5079945;28;20318;-69
2021/07/10 12:40:02;;;;;;;1.13;1.07;;;;;;;;;;5079779;28;20231;-69
2021/07/10 12:42:31;;;;;;;1.30;1.20;;;;;;;;;;5079789;28;20233;-69
2021/07/10 12:45:00;;;;;;;1.93;1.30;;;;;;;;;;5080137;28;20294;-69
2021/07/10 12:47:29;;;;;;;1.30;1.20;;;;;;;;;;5080041;28;20229;-69
2021/07/10 12:49:58;;;;;;;1.47;1.00;;;;;;;;;;5080040;28;20207;-69
2021/07/10 12:52:28;;;;;;;1.13;1.13;;;;;;;;;;5079557;28;20255;-69
2021/07/10 12:54:58;;;;;;;2.73;1.47;;;;;;;;;;5079617;28;20225;-69
2021/07/10 12:57:30;;;;;;;0.93;0.67;;;;;;;;;;5079695;28;20690;-69
2021/07/10 13:00:02;;;;;;;1.30;1.20;;;;;;;;;;5079581;28;20296;-69
2021/07/10 13:02:31;;;;;;;0.90;0.90;;;;;;;;;;5079735;28;20268;-69
2021/07/10 13:05:02;;;;;;;1.20;1.10;;;;;;;;;;5079936;28;20210;-69
2021/07/10 13:07:31;;;;;;;2.10;0.90;;;;;;;;;;5079306;28;20246;-69
2021/07/10 13:09:59;;;;;;;1.30;1.20;;;;;;;;;;5079323;28;20207;-69
2021/07/10 13:12:44;;;;;;;2.33;1.00;;;;;;;;;;5078945;28;20220;-69
2021/07/10 13:15:15;;;;;;;2.10;1.30;;;;;;;;;;5079450;28;20217;-69
2021/07/10 13:17:43;;;;;;;2.93;1.10;;;;;;;;;;5079474;28;20228;-69
2021/07/10 13:20:23;;;;;;;3.60;1.17;;;;;;;;;;5079100;28;20576;-69
2021/07/10 13:22:51;;;;;;;3.97;1.23;;;;;;;;;;5079204;28;20275;-69
2021/07/10 13:25:20;;;;;;;1.07;0.93;;;;;;;;;;5078807;28;20207;-68
2021/07/10 13:27:48;;;;;;;1.10;1.10;;;;;;;;;;5079271;28;20287;-69
2021/07/10 13:30:18;;;;;;;1.20;1.17;;;;;;;;;;5079196;28;20220;-68
2021/07/10 13:32:52;;;;;;;2.27;1.10;;;;;;;;;;5078689;28;20241;-68
2021/07/10 13:35:23;;;;;;;2.13;1.20;;;;;;;;;;5079089;28;20209;-68
2021/07/10 13:37:52;;;;;;;1.40;1.30;;;;;;;;;;5078486;28;20231;-68
2021/07/10 13:40:21;;;;;;;1.27;1.17;;;;;;;;;;5078700;28;20216;-68
2021/07/10 13:42:59;;;;;;;2.93;1.30;;;;;;;;;;5078884;28;20360;-69
2021/07/10 13:45:29;;;;;;;1.00;1.00;;;;;;;;;;5078658;28;20293;-68
2021/07/10 13:48:10;;;;;;;1.10;1.07;;;;;;;;;;5078844;28;20210;-68
2021/07/10 13:50:38;;;;;;;1.63;1.53;;;;;;;;;;5078425;28;20260;-68
2021/07/10 13:53:15;;;;;;;1.30;1.20;;;;;;;;;;5078713;28;20234;-68
2021/07/10 13:55:43;;;;;;;2.17;1.30;;;;;;;;;;5078551;28;20207;-68
2021/07/10 13:58:25;;;;;;;1.53;1.20;;;;;;;;;;5078311;28;20605;-69
2021/07/10 14:00:55;;;;;;;1.30;1.20;;;;;;;;;;5078260;28;20712;-68
2021/07/10 14:03:23;;;;;;;1.10;1.10;;;;;;;;;;5078407;28;20203;-68
2021/07/10 14:05:53;;;;;;;1.83;1.50;;;;;;;;;;5078091;28;20651;-67
2021/07/10 14:08:22;;;;;;;1.10;1.10;;;;;;;;;;5078440;28;20676;-67
2021/07/10 14:10:50;;;;;;;1.20;1.20;;;;;;;;;;5078320;28;20223;-69
2021/07/10 14:13:20;;;;;;;1.97;1.43;;;;;;;;;;5078127;28;20315;-68
2021/07/10 14:15:49;;;;;;;1.57;1.20;;;;;;;;;;5078360;28;20207;-69
2021/07/10 14:18:18;;;;;;;2.13;1.30;;;;;;;;;;5078191;28;20225;-68
2021/07/10 14:20:49;;;;;;;2.23;1.63;;;;;;;;;;5077931;28;20223;-69
2021/07/10 14:23:22;;;;;;;1.53;1.43;;;;;;;;;;5077173;28;20217;-68
2021/07/10 14:25:50;;;;;;;1.60;1.33;;;;;;;;;;5077838;28;20631;-69
2021/07/10 14:28:18;;;;;;;1.63;1.37;;;;;;;;;;5078136;28;20205;-69
2021/07/10 14:30:47;;;;;;;1.50;1.37;;;;;;;;;;5078173;28;20210;-69
2021/07/10 14:33:15;;;;;;;2.27;1.80;;;;;;;;;;5077748;28;20281;-69
2021/07/10 14:35:44;;;;;;;3.40;2.80;;;;;;;;;;5077823;28;20212;-69
2021/07/10 14:38:13;;;;;;;3.23;1.70;;;;;;;;;;5077940;28;20236;-68
2021/07/10 14:40:42;;;;;;;3.30;1.70;;;;;;;;;;5077723;28;20289;-69
2021/07/10 14:43:13;;;;;;;3.03;1.57;;;;;;;;;;5077717;28;20233;-69
2021/07/10 14:45:45;;;;;;;3.90;1.63;;;;;;;;;;5077951;28;20294;-69
2021/07/10 14:48:13;;;;;;;6.60;2.77;;;;;;;;;;5078022;28;20204;-69
2021/07/10 14:50:41;;;;;;;4.33;3.67;;;;;;;;;;5077362;28;21020;-69
2021/07/10 14:53:11;;;;;;;3.03;1.87;;;;;;;;;;5077892;28;20239;-69
2021/07/10 14:55:39;;;;;;;1.50;1.40;;;;;;;;;;5077527;28;20573;-69
2021/07/10 14:58:07;;;;;;;2.80;1.97;;;;;;;;;;5077619;28;20598;-69
2021/07/10 15:00:35;;;;;;;1.77;1.53;;;;;;;;;;5077547;28;20641;-69